TX73 weather

CLOSED Big Brown Creek Airstrip
Fairfield, Texas, United States

Public forecast

Using degrees Fahrenheit for public forecast. Weather courtesy of forecast.io.

Closest aviation weather report (METAR) to Big Brown Creek Airstrip

Closest report is Palestine Municipal Airport, 17.9 nm (33.2 km) E. Retrieved 2020/04/05 09:35 UTC (19 minutes ago):

KPSN 050935Z AUTO 32003KT 1 3/4SM BR OVC003 10/10 A3003 RMK AO2 T01030103

Closest aviation forecast (TAF) to Big Brown Creek Airstrip

Closest forecast is Tyler Pounds Regional Airport, 45.6 nm (84.4 km) NE. Retrieved 2020/04/05 06:42 UTC (3 hours ago):

TAF KTYR 050541Z 0506/0606 35004KT 1SM BR VV002 TEMPO 0506/0509 1/4SM -DZ FG BKN002 FM050900 01003KT 1SM -DZ BR OVC002 FM051600 VRB04KT 3SM BR OVC004 FM051800 15006KT 6SM BR OVC007 FM052000 12005KT P6SM OVC015 FM060300 12004KT P6SM BKN250